Terminal Aerodrome Forecast
Issued by NWS Wilmington, OH

Current Version | Previous Version | Text Only | Print | Product List | Glossary Off
Versions: 1 2 3 4 5 6 7 8 9 10 11 12 13 14 15 16 17 18 19 20 21 22 23 24 25 26 27

000
FTUS41 KILN 301800 AAA
TAFILN
TAF AMD
KILN 301856Z 3019/0118 28007KT P6SM SCT030 BKN050
     FM010000 24006KT P6SM SCT050
     FM010900 26003KT 5SM BR SCT004
      TEMPO 0110/0113 1SM BR BKN003
     FM011300 29007KT P6SM SCT030
      TEMPO 0114/0118 BKN025=

USA.gov is the U.S. government's official web portal to all federal, state and local government web resources and services.